createdAt,value
2018-08-11T08:14:23.626Z,65.02
2018-08-11T08:16:52.213Z,66.20
2018-08-11T08:19:20.836Z,64.73
2018-08-11T08:21:49.424Z,65.09
2018-08-11T08:24:17.977Z,65.39
2018-08-11T08:26:46.547Z,64.57
2018-08-11T08:29:15.271Z,63.00
2018-08-11T08:31:43.845Z,62.62
2018-08-11T08:34:13.237Z,62.03
2018-08-11T08:36:41.822Z,60.83
2018-08-11T08:39:12.680Z,61.23
2018-08-11T08:41:41.817Z,58.77
2018-08-11T08:44:10.364Z,59.70
2018-08-11T08:46:38.907Z,58.43
2018-08-11T08:49:07.500Z,58.46
2018-08-11T08:51:37.148Z,58.45
2018-08-11T08:54:05.844Z,59.10
2018-08-11T08:56:34.403Z,59.35
2018-08-11T08:59:02.995Z,59.12
2018-08-11T09:01:31.528Z,58.41
2018-08-11T09:04:00.163Z,58.48
2018-08-11T09:06:28.787Z,58.45
2018-08-11T09:08:57.360Z,58.38
2018-08-11T09:11:26.066Z,59.18
2018-08-11T09:13:57.590Z,59.00
2018-08-11T09:16:26.332Z,58.56
2018-08-11T09:18:54.894Z,58.86
2018-08-11T09:21:23.437Z,59.29
2018-08-11T09:23:52.008Z,58.38
2018-08-11T09:26:20.590Z,56.84
2018-08-11T09:28:49.181Z,57.03
2018-08-11T09:31:17.779Z,56.34
2018-08-11T09:33:46.595Z,56.37
2018-08-11T09:36:16.176Z,57.52
2018-08-11T09:38:44.744Z,56.21
2018-08-11T09:41:13.468Z,55.86
2018-08-11T09:43:42.177Z,55.09
2018-08-11T09:46:10.724Z,56.28
2018-08-11T09:48:39.517Z,56.19
2018-08-11T09:51:08.413Z,56.61
2018-08-11T09:53:37.975Z,55.99
2018-08-11T09:56:06.716Z,55.77
2018-08-11T09:58:35.288Z,55.08
2018-08-11T10:01:09.028Z,55.79
2018-08-11T10:03:37.652Z,54.39
2018-08-11T10:06:06.549Z,53.65
2018-08-11T10:08:35.230Z,53.03
2018-08-11T10:11:03.842Z,53.17
2018-08-11T10:13:32.437Z,53.60
2018-08-11T10:16:01.203Z,53.27
2018-08-11T10:18:29.935Z,53.16
2018-08-11T10:20:58.516Z,51.79
2018-08-11T10:23:27.524Z,52.55
2018-08-11T10:26:24.809Z,50.41
2018-08-11T10:28:53.436Z,50.44
2018-08-11T10:31:22.310Z,51.01
2018-08-11T10:33:50.910Z,51.25
2018-08-11T10:36:19.452Z,52.13
2018-08-11T10:38:48.011Z,51.31
2018-08-11T10:41:16.875Z,51.24
2018-08-11T10:43:45.437Z,50.99
2018-08-11T10:46:13.991Z,49.59
2018-08-11T10:48:42.884Z,49.76
2018-08-11T10:51:11.515Z,50.75
2018-08-11T10:53:40.092Z,51.02
2018-08-11T10:56:08.924Z,51.79
2018-08-11T10:58:37.666Z,51.68
2018-08-11T11:01:06.225Z,51.35
2018-08-11T11:03:34.767Z,51.24
2018-08-11T11:06:03.674Z,50.31
2018-08-11T11:08:32.404Z,51.18
2018-08-11T11:11:00.935Z,51.07
2018-08-11T11:13:29.858Z,50.40
2018-08-11T11:15:58.415Z,47.98
2018-08-11T11:18:27.011Z,48.44
2018-08-11T11:20:55.581Z,45.72
2018-08-11T11:23:24.136Z,46.02
2018-08-11T11:25:52.739Z,45.29
2018-08-11T11:28:21.499Z,44.08
2018-08-11T11:30:50.031Z,45.54
2018-08-11T11:33:18.597Z,44.25
2018-08-11T11:35:47.267Z,44.27
2018-08-11T11:38:16.076Z,43.79
2018-08-11T11:40:44.760Z,44.17
2018-08-11T11:43:13.921Z,45.90
2018-08-11T11:45:42.641Z,46.60
2018-08-11T11:48:12.359Z,45.76
2018-08-11T11:50:40.953Z,45.55
2018-08-11T11:53:09.619Z,44.15
2018-08-11T11:55:38.505Z,43.25
2018-08-11T11:58:07.043Z,44.13
2018-08-11T12:00:36.568Z,44.41
2018-08-11T12:03:05.219Z,43.97
2018-08-11T12:05:33.760Z,44.04
2018-08-11T12:08:03.145Z,44.08
2018-08-11T12:10:32.119Z,42.87
2018-08-11T12:13:00.916Z,42.81
2018-08-11T12:15:29.544Z,42.57
2018-08-11T12:17:58.182Z,42.44
2018-08-11T12:20:26.753Z,42.46
2018-08-11T12:22:55.356Z,42.64
2018-08-11T12:25:24.016Z,41.26
2018-08-11T12:27:52.564Z,41.93
2018-08-11T12:30:21.219Z,37.87
2018-08-11T12:32:49.811Z,38.48
2018-08-11T12:35:18.424Z,37.33
2018-08-11T12:37:47.001Z,36.52
2018-08-11T12:40:15.616Z,37.10
2018-08-11T12:42:44.193Z,35.73
2018-08-11T12:45:13.557Z,36.47
2018-08-11T12:47:42.179Z,34.63
2018-08-11T12:50:10.803Z,34.62
2018-08-11T12:52:39.558Z,35.57
2018-08-11T12:55:08.182Z,33.35
2018-08-11T12:57:36.847Z,33.76
2018-08-11T13:00:06.455Z,32.57
2018-08-11T13:02:35.103Z,33.24
2018-08-11T13:05:04.168Z,34.64
2018-08-11T13:07:32.935Z,34.45
2018-08-11T13:10:01.556Z,32.65
2018-08-11T13:12:30.589Z,32.68
2018-08-11T13:14:59.210Z,33.25
2018-08-11T13:17:28.155Z,33.58
2018-08-11T13:19:56.720Z,33.37
2018-08-11T13:22:25.535Z,33.05
2018-08-11T13:24:54.097Z,32.25
2018-08-11T13:27:22.760Z,32.56
2018-08-11T13:29:51.432Z,33.19
2018-08-11T13:32:20.026Z,31.65
2018-08-11T13:34:49.554Z,33.15
2018-08-11T13:37:18.269Z,33.87
2018-08-11T13:39:48.576Z,32.93
2018-08-11T13:42:17.285Z,33.04
2018-08-11T13:44:46.021Z,32.78
2018-08-11T13:47:16.163Z,33.12
2018-08-11T13:49:44.811Z,33.58
2018-08-11T13:52:13.476Z,32.98
2018-08-11T13:54:42.170Z,33.10
2018-08-11T13:57:10.788Z,33.50
2018-08-11T13:59:39.386Z,32.16
2018-08-11T14:02:07.998Z,32.51
2018-08-11T14:04:36.851Z,31.15
2018-08-11T14:07:05.457Z,31.78
2018-08-11T14:09:34.888Z,32.84
2018-08-11T14:12:03.579Z,32.17
2018-08-11T14:14:33.156Z,30.63
2018-08-11T14:17:01.816Z,32.47
2018-08-11T14:19:30.447Z,31.68
2018-08-11T14:21:59.150Z,31.75
2018-08-11T14:24:28.022Z,32.93
2018-08-11T14:26:56.680Z,31.95
2018-08-11T14:32:16.604Z,33.55
2018-08-11T14:34:45.415Z,33.42
2018-08-11T14:37:13.984Z,32.77
2018-08-11T14:39:42.619Z,32.79
2018-08-11T14:42:11.346Z,33.75
2018-08-11T14:44:40.241Z,34.26
2018-08-11T14:47:08.896Z,34.01
2018-08-11T14:49:37.438Z,34.41
2018-08-11T14:52:06.284Z,33.64
2018-08-11T14:54:35.094Z,34.24
2018-08-11T14:57:03.672Z,33.21
2018-08-11T14:59:32.435Z,33.68
2018-08-11T15:02:01.487Z,33.73
2018-08-11T15:04:30.049Z,33.84
2018-08-11T15:06:58.612Z,33.95
2018-08-11T15:09:27.317Z,34.38
2018-08-11T15:11:55.857Z,34.59
2018-08-11T15:14:24.400Z,34.14
2018-08-11T15:16:53.000Z,34.90
2018-08-11T15:19:21.599Z,33.95
2018-08-11T15:21:50.236Z,33.94
2018-08-11T15:24:19.083Z,33.76
2018-08-11T15:26:47.660Z,33.95
2018-08-11T15:29:16.244Z,34.14
2018-08-11T15:31:45.199Z,33.83
2018-08-11T15:34:14.113Z,33.96
2018-08-11T15:36:42.673Z,34.71
2018-08-11T15:39:13.808Z,34.30
2018-08-11T15:41:42.712Z,33.79
2018-08-11T15:44:11.423Z,34.29
2018-08-11T15:46:39.980Z,35.28
2018-08-11T15:49:08.754Z,34.18
2018-08-11T15:51:37.356Z,34.24
2018-08-11T15:54:07.723Z,34.56
2018-08-11T15:56:36.384Z,33.30
2018-08-11T15:59:05.226Z,34.05
2018-08-11T16:01:33.880Z,34.10
2018-08-11T16:04:02.444Z,34.89
2018-08-11T16:06:32.175Z,34.48
2018-08-11T16:09:00.886Z,34.86
2018-08-11T16:11:29.536Z,35.23
2018-08-11T16:13:58.208Z,36.12
2018-08-11T16:16:26.903Z,36.14
2018-08-11T16:21:58.304Z,37.16
2018-08-11T16:24:27.042Z,36.65
2018-08-11T16:26:55.736Z,36.59
2018-08-11T16:29:30.537Z,37.13
2018-08-11T16:32:07.479Z,36.47
2018-08-11T16:34:36.097Z,36.58
2018-08-11T16:37:04.660Z,36.79
2018-08-11T16:39:33.349Z,36.44
2018-08-11T16:42:01.931Z,37.19
2018-08-11T16:44:30.538Z,37.41
2018-08-11T16:46:59.076Z,37.27
2018-08-11T16:49:27.659Z,37.10
2018-08-11T16:51:56.232Z,37.60
2018-08-11T16:54:24.808Z,37.85
2018-08-11T16:56:53.547Z,37.69
2018-08-11T16:59:22.425Z,38.65
2018-08-11T17:01:50.979Z,38.13
2018-08-11T17:04:19.572Z,40.65
2018-08-11T17:06:48.189Z,41.23
2018-08-11T17:09:17.777Z,41.76
2018-08-11T17:11:46.607Z,42.29
2018-08-11T17:14:15.208Z,42.12
2018-08-11T17:16:43.818Z,41.91
2018-08-11T17:19:12.507Z,42.68
2018-08-11T17:21:41.058Z,43.91
2018-08-11T17:24:09.664Z,43.76
2018-08-11T17:26:38.199Z,45.23
2018-08-11T17:29:07.028Z,45.61
2018-08-11T17:31:35.575Z,46.86
2018-08-11T17:34:04.170Z,47.73
2018-08-11T17:36:32.812Z,47.89
2018-08-11T17:39:01.388Z,48.92
2018-08-11T17:41:29.953Z,48.59
2018-08-11T17:43:58.606Z,48.94
2018-08-11T17:46:27.180Z,49.08
2018-08-11T17:48:55.792Z,49.77
2018-08-11T17:51:24.625Z,50.23
2018-08-11T17:53:53.179Z,50.37
2018-08-11T17:56:21.756Z,51.07
2018-08-11T17:58:50.409Z,51.64
2018-08-11T18:01:18.958Z,51.31
2018-08-11T18:03:47.593Z,52.11
2018-08-11T18:06:16.179Z,51.75
2018-08-11T18:08:44.842Z,52.32
2018-08-11T18:11:13.498Z,52.15
2018-08-11T18:13:42.041Z,52.57
2018-08-11T18:16:10.613Z,52.64
2018-08-11T18:18:39.316Z,52.33
2018-08-11T18:21:07.871Z,52.14
2018-08-11T18:23:36.480Z,52.01
2018-08-11T18:26:05.714Z,52.14
2018-08-11T18:28:34.488Z,52.85
2018-08-11T18:31:03.744Z,52.69
2018-08-11T18:33:32.635Z,52.76
2018-08-11T18:36:01.387Z,53.00
2018-08-11T18:38:30.018Z,53.01
2018-08-11T18:40:58.584Z,52.70
2018-08-11T18:43:27.259Z,52.81
2018-08-11T18:45:56.173Z,54.57
2018-08-11T18:48:24.756Z,54.38
2018-08-11T18:50:53.800Z,54.20
2018-08-11T18:53:22.596Z,55.05
2018-08-11T18:55:51.236Z,55.18
2018-08-11T18:58:19.960Z,55.25
2018-08-11T19:00:59.688Z,55.63
2018-08-11T19:03:28.983Z,55.30
2018-08-11T19:05:57.646Z,55.39
2018-08-11T19:08:30.520Z,55.97
2018-08-11T19:11:03.877Z,56.86
2018-08-11T19:13:32.501Z,56.10
2018-08-11T19:16:01.168Z,56.85
2018-08-11T19:18:29.723Z,57.48
2018-08-11T19:20:58.286Z,57.29
2018-08-11T19:23:26.878Z,56.66
2018-08-11T19:25:55.495Z,57.53
2018-08-11T19:28:24.409Z,56.44
2018-08-11T19:30:52.989Z,57.15
2018-08-11T19:33:21.555Z,57.45
2018-08-11T19:35:50.476Z,57.02
2018-08-11T19:38:19.071Z,56.43
2018-08-11T19:40:48.719Z,56.51
2018-08-11T19:43:18.198Z,57.52
2018-08-11T19:45:46.760Z,57.99
2018-08-11T19:48:15.364Z,58.16
2018-08-11T19:50:45.132Z,58.27
2018-08-11T19:53:13.700Z,58.91
2018-08-11T19:55:42.328Z,58.30
2018-08-11T19:58:10.936Z,58.39
2018-08-11T20:00:39.521Z,59.16
2018-08-11T20:03:08.132Z,59.55
2018-08-11T20:05:36.755Z,58.84
2018-08-11T20:08:05.343Z,59.42
2018-08-11T20:10:34.109Z,59.92
2018-08-11T20:13:03.292Z,60.82
2018-08-11T20:15:31.872Z,60.94
2018-08-11T20:18:00.527Z,61.37
2018-08-11T20:20:29.228Z,61.42
2018-08-11T20:22:57.786Z,60.72
2018-08-11T20:25:26.455Z,60.96
2018-08-11T20:27:54.968Z,61.42
2018-08-11T20:30:23.632Z,60.85
2018-08-11T20:32:52.247Z,59.96
2018-08-11T20:35:20.898Z,59.74
2018-08-11T20:37:49.679Z,59.95
2018-08-11T20:40:18.308Z,60.22
2018-08-11T20:42:46.937Z,59.46
2018-08-11T20:45:15.536Z,59.57
2018-08-11T20:47:44.135Z,59.87
2018-08-11T20:50:12.716Z,60.36
2018-08-11T20:52:41.427Z,59.78
2018-08-11T20:55:11.460Z,60.30
2018-08-11T20:57:40.280Z,59.44
2018-08-11T21:00:11.183Z,59.24
2018-08-11T21:02:39.761Z,59.29
2018-08-11T21:05:10.849Z,59.24
2018-08-11T21:07:40.149Z,60.02
2018-08-11T21:10:11.467Z,60.64
2018-08-11T21:12:40.571Z,60.02
2018-08-11T21:15:09.938Z,60.47
2018-08-11T21:17:39.295Z,59.64
2018-08-11T21:20:10.427Z,60.53
2018-08-11T21:22:39.059Z,60.32
2018-08-11T21:25:08.704Z,60.82
2018-08-11T21:27:37.688Z,61.96
2018-08-11T21:30:11.528Z,62.24
2018-08-11T21:32:40.183Z,60.97
2018-08-11T21:35:09.551Z,61.63
2018-08-11T21:37:39.031Z,61.09
2018-08-11T21:40:11.160Z,61.31
2018-08-11T21:42:40.118Z,60.45
2018-08-11T21:45:09.440Z,60.91
2018-08-11T21:47:38.525Z,61.17
2018-08-11T21:50:07.743Z,60.96
2018-08-11T21:52:36.691Z,61.67
2018-08-11T21:55:05.924Z,60.34
2018-08-11T21:57:35.119Z,60.46
2018-08-11T22:00:03.805Z,60.08
2018-08-11T22:02:32.439Z,59.92
2018-08-11T22:05:01.088Z,59.49
2018-08-11T22:07:29.843Z,59.57
2018-08-11T22:09:58.504Z,58.91
2018-08-11T22:12:27.249Z,60.28
2018-08-11T22:14:55.823Z,59.93
2018-08-11T22:20:56.281Z,58.80
2018-08-11T22:23:24.928Z,60.04
2018-08-11T22:25:53.492Z,59.12
2018-08-11T22:28:22.087Z,59.04
2018-08-11T22:30:50.745Z,59.91
2018-08-11T22:33:19.389Z,59.24
2018-08-11T22:35:48.040Z,59.57
2018-08-11T22:38:16.871Z,59.89
2018-08-11T22:40:45.655Z,59.86
2018-08-11T22:43:14.519Z,59.11
2018-08-11T22:45:43.104Z,59.15
2018-08-11T22:48:11.717Z,59.74
2018-08-11T22:50:40.471Z,59.55
2018-08-11T22:53:09.115Z,59.46
2018-08-11T22:55:38.204Z,58.96
2018-08-11T22:58:06.963Z,60.30
2018-08-11T23:00:37.187Z,60.77
2018-08-11T23:03:06.178Z,60.63
2018-08-11T23:05:34.927Z,59.15
2018-08-11T23:08:03.616Z,59.38
2018-08-11T23:10:32.270Z,59.09
2018-08-11T23:13:01.031Z,59.86
2018-08-11T23:15:30.182Z,59.63
2018-08-11T23:18:00.215Z,59.93
2018-08-11T23:20:28.748Z,60.46
2018-08-11T23:22:57.327Z,60.61
2018-08-11T23:25:26.017Z,60.27
2018-08-11T23:27:54.591Z,61.54
2018-08-11T23:30:23.263Z,61.84
2018-08-11T23:32:51.810Z,61.45
2018-08-11T23:35:20.432Z,62.33
2018-08-11T23:38:00.866Z,62.05
2018-08-11T23:40:29.844Z,63.61
2018-08-11T23:42:59.023Z,64.19
2018-08-11T23:45:27.668Z,64.77
2018-08-11T23:47:56.323Z,63.43
2018-08-11T23:50:25.023Z,62.02
2018-08-11T23:52:54.517Z,63.03
2018-08-11T23:55:23.102Z,63.48
2018-08-11T23:57:52.835Z,63.96
